Time,TemperatureF,DewpointF,PressureIn,WindDirection,WindDirectionDegrees,WindSpeedMPH,WindSpeedGustMPH,Humidity,HourlyPrecipIn,Conditions,Clouds,dailyrainin,SoftwareType,DateUTC
2013-04-14 00:12:00,49.7,43.0,29.97,SSE,166,0.0,1.0,78,0.00,,,0.00,weatherlink.com 1.10,2013-04-14 04:12:00,
2013-04-14 00:27:00,49.5,43.0,29.98,SSE,166,0.0,1.0,79,0.00,,,0.00,weatherlink.com 1.10,2013-04-14 04:27:00,
2013-04-14 00:42:00,49.5,44.0,29.98,SSE,166,0.0,0.0,80,0.00,,,0.00,weatherlink.com 1.10,2013-04-14 04:42:00,
2013-04-14 00:57:00,49.5,43.0,29.98,SSE,166,0.0,1.0,79,0.00,,,0.00,weatherlink.com 1.10,2013-04-14 04:57:00,
2013-04-14 01:12:00,49.6,43.0,29.98,SSE,166,0.0,2.0,77,0.00,,,0.00,weatherlink.com 1.10,2013-04-14 05:12:00,
2013-04-14 01:27:00,49.7,43.0,29.98,SSE,166,0.0,0.0,77,0.00,,,0.00,weatherlink.com 1.10,2013-04-14 05:27:00,
2013-04-14 01:43:00,49.9,43.0,29.98,SSE,166,0.0,0.0,77,0.00,,,0.00,weatherlink.com 1.10,2013-04-14 05:43:00,
2013-04-14 01:58:00,49.9,43.0,29.97,South,183,1.0,1.0,76,0.00,,,0.00,weatherlink.com 1.10,2013-04-14 05:58:00,
2013-04-14 02:13:00,49.9,43.0,29.97,South,183,0.0,1.0,76,0.00,,,0.00,weatherlink.com 1.10,2013-04-14 06:13:00,
2013-04-14 02:28:00,49.9,43.0,29.97,South,170,0.0,2.0,77,0.00,,,0.00,weatherlink.com 1.10,2013-04-14 06:28:00,
2013-04-14 02:43:00,49.7,43.0,29.96,South,183,0.0,1.0,77,0.00,,,0.00,weatherlink.com 1.10,2013-04-14 06:43:00,
2013-04-14 02:58:00,49.5,43.0,29.96,South,176,0.0,0.0,78,0.00,,,0.00,weatherlink.com 1.10,2013-04-14 06:58:00,
2013-04-14 03:13:00,49.4,43.0,29.96,South,176,0.0,0.0,79,0.00,,,0.00,weatherlink.com 1.10,2013-04-14 07:13:00,
2013-04-14 03:28:00,49.4,43.0,29.96,South,171,0.0,0.0,78,0.00,,,0.00,weatherlink.com 1.10,2013-04-14 07:28:00,
2013-04-14 03:43:00,49.0,43.0,29.96,South,180,2.0,2.0,80,0.00,,,0.00,weatherlink.com 1.10,2013-04-14 07:43:00,
2013-04-14 03:58:00,48.6,43.0,29.97,South,171,0.0,1.0,80,0.00,,,0.00,weatherlink.com 1.10,2013-04-14 07:58:00,
2013-04-14 04:13:00,48.7,43.0,29.97,South,171,0.0,1.0,80,0.00,,,0.00,weatherlink.com 1.10,2013-04-14 08:13:00,
2013-04-14 04:28:00,48.9,42.0,29.97,South,171,0.0,1.0,77,0.00,,,0.00,weatherlink.com 1.10,2013-04-14 08:28:00,
2013-04-14 04:43:00,48.8,42.0,29.98,South,171,0.0,0.0,77,0.00,,,0.00,weatherlink.com 1.10,2013-04-14 08:43:00,
2013-04-14 04:58:00,48.4,42.0,29.97,South,170,0.0,0.0,78,0.00,,,0.00,weatherlink.com 1.10,2013-04-14 08:58:00,
2013-04-14 05:13:00,47.9,42.0,29.98,South,170,0.0,0.0,79,0.00,,,0.00,weatherlink.com 1.10,2013-04-14 09:13:00,
2013-04-14 05:28:00,47.2,41.0,29.98,South,170,0.0,0.0,80,0.00,,,0.00,weatherlink.com 1.10,2013-04-14 09:28:00,
2013-04-14 05:43:00,46.7,42.0,29.98,South,170,0.0,0.0,82,0.00,,,0.00,weatherlink.com 1.10,2013-04-14 09:43:00,
2013-04-14 05:58:00,46.3,41.0,29.99,South,170,0.0,0.0,82,0.00,,,0.00,weatherlink.com 1.10,2013-04-14 09:58:00,
2013-04-14 06:13:00,45.6,40.0,30.00,South,170,0.0,0.0,82,0.00,,,0.00,weatherlink.com 1.10,2013-04-14 10:13:00,
2013-04-14 06:28:00,45.5,41.0,30.00,South,170,0.0,0.0,83,0.00,,,0.00,weatherlink.com 1.10,2013-04-14 10:28:00,
2013-04-14 06:43:00,46.3,40.0,30.00,South,171,0.0,0.0,80,0.00,,,0.00,weatherlink.com 1.10,2013-04-14 10:43:00,
2013-04-14 06:58:00,46.9,39.0,30.01,South,171,0.0,0.0,73,0.00,,,0.00,weatherlink.com 1.10,2013-04-14 10:58:00,
2013-04-14 07:13:00,49.4,37.0,30.01,SE,134,0.0,2.0,62,0.00,,,0.00,weatherlink.com 1.10,2013-04-14 11:13:00,
2013-04-14 07:28:00,50.4,36.0,30.02,SSE,158,1.0,2.0,59,0.00,,,0.00,weatherlink.com 1.10,2013-04-14 11:28:00,
2013-04-14 07:43:00,50.9,36.0,30.02,SE,146,1.0,4.0,58,0.00,,,0.00,weatherlink.com 1.10,2013-04-14 11:43:00,
2013-04-14 07:58:00,51.2,36.0,30.03,SSE,151,1.0,4.0,56,0.00,,,0.00,weatherlink.com 1.10,2013-04-14 11:58:00,
2013-04-14 08:13:00,51.5,36.0,30.03,ESE,111,0.0,4.0,56,0.00,,,0.00,weatherlink.com 1.10,2013-04-14 12:13:00,
2013-04-14 08:28:00,51.9,36.0,30.04,East,99,2.0,5.0,54,0.00,,,0.00,weatherlink.com 1.10,2013-04-14 12:28:00,
2013-04-14 08:43:00,52.4,36.0,30.04,South,172,3.0,5.0,53,0.00,,,0.00,weatherlink.com 1.10,2013-04-14 12:43:00,
2013-04-14 08:58:00,52.4,36.0,30.04,NNW,338,1.0,6.0,53,0.00,,,0.00,weatherlink.com 1.10,2013-04-14 12:58:00,
2013-04-14 09:13:00,53.2,36.0,30.04,NNW,342,4.0,6.0,52,0.00,,,0.00,weatherlink.com 1.10,2013-04-14 13:13:00,
2013-04-14 09:29:00,55.5,36.0,30.04,ENE,60,1.0,5.0,49,0.00,,,0.00,weatherlink.com 1.10,2013-04-14 13:29:00,
2013-04-14 09:44:00,55.7,37.0,30.04,NW,318,2.0,9.0,49,0.00,,,0.00,weatherlink.com 1.10,2013-04-14 13:44:00,
2013-04-14 09:59:00,55.5,36.0,30.05,North,358,6.0,9.0,49,0.00,,,0.00,weatherlink.com 1.10,2013-04-14 13:59:00,
2013-04-14 10:14:00,55.7,36.0,30.05,North,354,1.0,7.0,47,0.00,,,0.00,weatherlink.com 1.10,2013-04-14 14:14:00,
2013-04-14 10:29:00,55.0,35.0,30.05,NNE,27,4.0,8.0,47,0.00,,,0.00,weatherlink.com 1.10,2013-04-14 14:29:00,
2013-04-14 10:44:00,55.7,34.0,30.05,ENE,63,1.0,13.0,45,0.00,,,0.00,weatherlink.com 1.10,2013-04-14 14:44:00,
2013-04-14 10:59:00,54.9,33.0,30.06,North,4,8.0,11.0,44,0.00,,,0.00,weatherlink.com 1.10,2013-04-14 14:59:00,
2013-04-14 11:14:00,56.2,33.0,30.07,North,351,4.0,8.0,42,0.00,,,0.00,weatherlink.com 1.10,2013-04-14 15:14:00,
2013-04-14 11:29:00,56.3,31.0,30.07,NE,53,3.0,9.0,39,0.00,,,0.00,weatherlink.com 1.10,2013-04-14 15:29:00,
2013-04-14 11:44:00,56.3,31.0,30.07,North,352,6.0,7.0,38,0.00,,,0.00,weatherlink.com 1.10,2013-04-14 15:44:00,
2013-04-14 11:59:00,56.7,30.0,30.07,North,354,4.0,11.0,37,0.00,,,0.00,weatherlink.com 1.10,2013-04-14 15:59:00,
2013-04-14 12:14:00,57.4,30.0,30.06,ENE,60,6.0,8.0,36,0.00,,,0.00,weatherlink.com 1.10,2013-04-14 16:14:00,
2013-04-14 12:29:00,57.8,29.0,30.06,North,357,5.0,8.0,34,0.00,,,0.00,weatherlink.com 1.10,2013-04-14 16:29:00,
2013-04-14 12:44:00,57.7,28.0,30.06,NNW,337,2.0,10.0,32,0.00,,,0.00,weatherlink.com 1.10,2013-04-14 16:44:00,
2013-04-14 12:59:00,57.5,28.0,30.06,ENE,78,2.0,9.0,33,0.00,,,0.00,weatherlink.com 1.10,2013-04-14 16:59:00,
2013-04-14 13:14:00,57.9,28.0,30.06,NE,34,2.0,8.0,32,0.00,,,0.00,weatherlink.com 1.10,2013-04-14 17:14:00,
2013-04-14 13:29:00,58.6,29.0,30.06,North,11,7.0,8.0,32,0.00,,,0.00,weatherlink.com 1.10,2013-04-14 17:29:00,
2013-04-14 13:44:00,58.5,29.0,30.06,NE,46,1.0,10.0,32,0.00,,,0.00,weatherlink.com 1.10,2013-04-14 17:44:00,
2013-04-14 13:59:00,58.2,28.0,30.06,NNW,342,3.0,10.0,32,0.00,,,0.00,weatherlink.com 1.10,2013-04-14 17:59:00,
2013-04-14 14:14:00,58.4,28.0,30.07,North,8,8.0,10.0,32,0.00,,,0.00,weatherlink.com 1.10,2013-04-14 18:14:00,
2013-04-14 14:29:00,58.6,29.0,30.07,NNW,333,3.0,10.0,32,0.00,,,0.00,weatherlink.com 1.10,2013-04-14 18:29:00,
2013-04-14 14:44:00,58.7,29.0,30.07,NNW,333,6.0,12.0,32,0.00,,,0.00,weatherlink.com 1.10,2013-04-14 18:44:00,
2013-04-14 14:59:00,58.8,29.0,30.07,NNW,339,5.0,10.0,32,0.00,,,0.00,weatherlink.com 1.10,2013-04-14 18:59:00,
2013-04-14 15:14:00,58.8,28.0,30.07,WNW,302,1.0,11.0,31,0.00,,,0.00,weatherlink.com 1.10,2013-04-14 19:14:00,
2013-04-14 15:29:00,59.4,29.0,30.06,NE,51,5.0,9.0,31,0.00,,,0.00,weatherlink.com 1.10,2013-04-14 19:29:00,
2013-04-14 15:44:00,59.0,28.0,30.06,NNE,27,2.0,8.0,31,0.00,,,0.00,weatherlink.com 1.10,2013-04-14 19:44:00,
2013-04-14 15:59:00,58.1,28.0,30.05,NNW,333,2.0,12.0,32,0.00,,,0.00,weatherlink.com 1.10,2013-04-14 19:59:00,
2013-04-14 16:14:00,58.2,28.0,30.06,NNW,337,5.0,9.0,32,0.00,,,0.00,weatherlink.com 1.10,2013-04-14 20:14:00,
2013-04-14 16:29:00,57.7,29.0,30.06,NE,53,6.0,10.0,33,0.00,,,0.00,weatherlink.com 1.10,2013-04-14 20:29:00,
2013-04-14 16:44:00,58.0,28.0,30.07,NE,36,3.0,12.0,32,0.00,,,0.00,weatherlink.com 1.10,2013-04-14 20:44:00,
2013-04-14 16:59:00,57.6,28.0,30.08,NE,46,2.0,11.0,32,0.00,,,0.00,weatherlink.com 1.10,2013-04-14 20:59:00,
2013-04-14 17:14:00,57.2,28.0,30.08,NNE,26,6.0,7.0,33,0.00,,,0.00,weatherlink.com 1.10,2013-04-14 21:14:00,
2013-04-14 17:29:00,57.1,28.0,30.08,WNW,303,3.0,8.0,33,0.00,,,0.00,weatherlink.com 1.10,2013-04-14 21:29:00,
2013-04-14 17:44:00,57.0,28.0,30.08,NNW,347,2.0,10.0,33,0.00,,,0.00,weatherlink.com 1.10,2013-04-14 21:44:00,
2013-04-14 17:59:00,56.8,29.0,30.09,NE,55,1.0,9.0,34,0.00,,,0.00,weatherlink.com 1.10,2013-04-14 21:59:00,
2013-04-14 18:14:00,56.5,28.0,30.09,NNW,340,2.0,7.0,34,0.00,,,0.00,weatherlink.com 1.10,2013-04-14 22:14:00,
2013-04-14 18:29:00,56.5,29.0,30.10,NW,325,1.0,5.0,35,0.00,,,0.00,weatherlink.com 1.10,2013-04-14 22:29:00,
2013-04-14 18:45:00,55.8,28.0,30.11,WNW,289,0.0,4.0,35,0.00,,,0.00,weatherlink.com 1.10,2013-04-14 22:45:00,
2013-04-14 18:59:00,55.4,29.0,30.11,NNW,342,1.0,4.0,36,0.00,,,0.00,weatherlink.com 1.10,2013-04-14 22:59:00,
2013-04-14 19:15:00,55.0,29.0,30.12,NNW,348,2.0,5.0,37,0.00,,,0.00,weatherlink.com 1.10,2013-04-14 23:15:00,
2013-04-14 19:30:00,54.2,29.0,30.13,NNE,27,1.0,5.0,38,0.00,,,0.00,weatherlink.com 1.10,2013-04-14 23:30:00,
2013-04-14 19:45:00,53.7,29.0,30.14,NW,323,2.0,5.0,39,0.00,,,0.00,weatherlink.com 1.10,2013-04-14 23:45:00,
2013-04-14 20:00:00,53.4,29.0,30.14,NNW,330,1.0,2.0,39,0.00,,,0.00,weatherlink.com 1.10,2013-04-15 00:00:00,
2013-04-14 20:15:00,53.2,29.0,30.15,NE,43,0.0,4.0,40,0.00,,,0.00,weatherlink.com 1.10,2013-04-15 00:15:00,
2013-04-14 20:30:00,52.6,30.0,30.16,WNW,286,0.0,1.0,42,0.00,,,0.00,weatherlink.com 1.10,2013-04-15 00:30:00,
2013-04-14 20:45:00,52.0,31.0,30.16,WNW,283,0.0,0.0,44,0.00,,,0.00,weatherlink.com 1.10,2013-04-15 00:45:00,
2013-04-14 21:00:00,52.0,29.0,30.17,West,271,1.0,2.0,42,0.00,,,0.00,weatherlink.com 1.10,2013-04-15 01:00:00,
2013-04-14 21:15:00,51.6,30.0,30.18,WSW,253,1.0,1.0,44,0.00,,,0.00,weatherlink.com 1.10,2013-04-15 01:15:00,
2013-04-14 21:30:00,51.2,30.0,30.18,NW,318,1.0,4.0,44,0.00,,,0.00,weatherlink.com 1.10,2013-04-15 01:30:00,
2013-04-14 21:45:00,50.5,30.0,30.18,NNW,328,1.0,4.0,46,0.00,,,0.00,weatherlink.com 1.10,2013-04-15 01:45:00,
2013-04-14 22:00:00,50.0,30.0,30.19,NW,312,0.0,3.0,47,0.00,,,0.00,weatherlink.com 1.10,2013-04-15 02:00:00,
2013-04-14 22:15:00,49.5,30.0,30.19,WNW,285,1.0,1.0,48,0.00,,,0.00,weatherlink.com 1.10,2013-04-15 02:15:00,
2013-04-14 22:30:00,49.3,30.0,30.19,WNW,283,0.0,3.0,47,0.00,,,0.00,weatherlink.com 1.10,2013-04-15 02:30:00,
2013-04-14 22:45:00,49.1,30.0,30.19,WNW,293,0.0,2.0,48,0.00,,,0.00,weatherlink.com 1.10,2013-04-15 02:45:00,
2013-04-14 23:00:00,48.9,30.0,30.19,WNW,290,0.0,3.0,49,0.00,,,0.00,weatherlink.com 1.10,2013-04-15 03:00:00,
2013-04-14 23:15:00,48.8,30.0,30.20,North,353,0.0,2.0,49,0.00,,,0.00,weatherlink.com 1.10,2013-04-15 03:15:00,
2013-04-14 23:30:00,49.0,30.0,30.20,NW,316,0.0,3.0,49,0.00,,,0.00,weatherlink.com 1.10,2013-04-15 03:30:00,
2013-04-14 23:45:00,48.9,30.0,30.20,NNW,333,1.0,3.0,48,0.00,,,0.00,weatherlink.com 1.10,2013-04-15 03:45:00,